sensor_id;sensor_type;location;lat;lon;timestamp;P1;durP1;ratioP1;P2;durP2;ratioP2
63089;SDS011;49174;43.198;27.824;2023-02-22T05:06:24;17.45;;;10.95;;
63089;SDS011;49174;43.198;27.824;2023-02-22T05:08:49;14.45;;;9.65;;
63089;SDS011;49174;43.198;27.824;2023-02-22T05:11:15;15.77;;;8.88;;
63089;SDS011;49174;43.198;27.824;2023-02-22T05:13:40;13.02;;;8.90;;
63089;SDS011;49174;43.198;27.824;2023-02-22T05:16:06;16.85;;;9.02;;
63089;SDS011;49174;43.198;27.824;2023-02-22T05:18:31;15.48;;;10.15;;
63089;SDS011;49174;43.198;27.824;2023-02-22T05:20:57;19.48;;;11.23;;
63089;SDS011;49174;43.198;27.824;2023-02-22T05:23:22;20.60;;;11.07;;
63089;SDS011;49174;43.198;27.824;2023-02-22T05:25:48;22.45;;;9.85;;
63089;SDS011;49174;43.198;27.824;2023-02-22T05:28:14;17.67;;;11.00;;
63089;SDS011;49174;43.198;27.824;2023-02-22T05:30:40;22.17;;;12.80;;
63089;SDS011;49174;43.198;27.824;2023-02-22T05:33:06;24.13;;;12.88;;
63089;SDS011;49174;43.198;27.824;2023-02-22T05:35:33;20.63;;;12.32;;
63089;SDS011;49174;43.198;27.824;2023-02-22T05:38:01;22.90;;;13.15;;
63089;SDS011;49174;43.198;27.824;2023-02-22T05:40:28;31.48;;;14.65;;
63089;SDS011;49174;43.198;27.824;2023-02-22T05:42:54;24.20;;;14.40;;
63089;SDS011;49174;43.198;27.824;2023-02-22T05:45:22;27.38;;;15.82;;
63089;SDS011;49174;43.198;27.824;2023-02-22T05:47:49;22.17;;;12.75;;
63089;SDS011;49174;43.198;27.824;2023-02-22T05:50:16;17.50;;;11.75;;
63089;SDS011;49174;43.198;27.824;2023-02-22T05:52:42;19.05;;;10.82;;
63089;SDS011;49174;43.198;27.824;2023-02-22T05:55:08;19.23;;;9.80;;
63089;SDS011;49174;43.198;27.824;2023-02-22T05:57:37;15.27;;;9.57;;
63089;SDS011;49174;43.198;27.824;2023-02-22T06:00:03;12.45;;;8.00;;
63089;SDS011;49174;43.198;27.824;2023-02-22T06:02:31;13.20;;;8.27;;
63089;SDS011;49174;43.198;27.824;2023-02-22T06:04:57;12.35;;;8.15;;
63089;SDS011;49174;43.198;27.824;2023-02-22T06:07:23;19.50;;;11.02;;
63089;SDS011;49174;43.198;27.824;2023-02-22T06:09:49;18.30;;;12.30;;
63089;SDS011;49174;43.198;27.824;2023-02-22T06:12:15;15.88;;;10.48;;
63089;SDS011;49174;43.198;27.824;2023-02-22T06:14:41;16.13;;;9.75;;
63089;SDS011;49174;43.198;27.824;2023-02-22T06:17:10;12.85;;;8.75;;
63089;SDS011;49174;43.198;27.824;2023-02-22T06:19:36;14.45;;;7.25;;
63089;SDS011;49174;43.198;27.824;2023-02-22T06:22:01;13.18;;;8.30;;
63089;SDS011;49174;43.198;27.824;2023-02-22T06:24:27;13.23;;;7.07;;
63089;SDS011;49174;43.198;27.824;2023-02-22T06:26:56;10.93;;;6.78;;
63089;SDS011;49174;43.198;27.824;2023-02-22T06:29:26;13.75;;;6.28;;
63089;SDS011;49174;43.198;27.824;2023-02-22T06:31:53;13.90;;;5.70;;
63089;SDS011;49174;43.198;27.824;2023-02-22T06:34:19;14.55;;;7.72;;
63089;SDS011;49174;43.198;27.824;2023-02-22T06:36:48;12.45;;;6.78;;
63089;SDS011;49174;43.198;27.824;2023-02-22T06:39:14;14.65;;;7.88;;
63089;SDS011;49174;43.198;27.824;2023-02-22T06:41:41;13.38;;;8.05;;
63089;SDS011;49174;43.198;27.824;2023-02-22T06:44:08;20.98;;;9.77;;
63089;SDS011;49174;43.198;27.824;2023-02-22T06:46:35;17.15;;;10.23;;
63089;SDS011;49174;43.198;27.824;2023-02-22T06:49:01;15.25;;;10.63;;
63089;SDS011;49174;43.198;27.824;2023-02-22T06:51:27;24.58;;;14.38;;
63089;SDS011;49174;43.198;27.824;2023-02-22T06:53:53;18.83;;;11.85;;
63089;SDS011;49174;43.198;27.824;2023-02-22T06:56:19;15.73;;;7.53;;
63089;SDS011;49174;43.198;27.824;2023-02-22T06:58:45;18.42;;;10.25;;
63089;SDS011;49174;43.198;27.824;2023-02-22T07:01:10;13.80;;;10.07;;
63089;SDS011;49174;43.198;27.824;2023-02-22T07:03:36;21.83;;;12.63;;
63089;SDS011;49174;43.198;27.824;2023-02-22T07:06:02;20.50;;;13.23;;
63089;SDS011;49174;43.198;27.824;2023-02-22T07:08:28;21.55;;;9.98;;
63089;SDS011;49174;43.198;27.824;2023-02-22T07:10:54;11.77;;;7.07;;
63089;SDS011;49174;43.198;27.824;2023-02-22T07:13:19;11.95;;;6.75;;
63089;SDS011;49174;43.198;27.824;2023-02-22T07:15:45;11.73;;;6.38;;
63089;SDS011;49174;43.198;27.824;2023-02-22T07:18:12;11.10;;;6.70;;
63089;SDS011;49174;43.198;27.824;2023-02-22T07:20:38;13.82;;;7.30;;
63089;SDS011;49174;43.198;27.824;2023-02-22T07:23:04;12.18;;;7.60;;
63089;SDS011;49174;43.198;27.824;2023-02-22T07:25:30;9.80;;;5.57;;
63089;SDS011;49174;43.198;27.824;2023-02-22T07:27:56;14.45;;;7.18;;
63089;SDS011;49174;43.198;27.824;2023-02-22T07:30:23;10.63;;;6.20;;
63089;SDS011;49174;43.198;27.824;2023-02-22T07:32:54;10.52;;;5.82;;
63089;SDS011;49174;43.198;27.824;2023-02-22T07:35:28;11.63;;;6.50;;
63089;SDS011;49174;43.198;27.824;2023-02-22T07:37:55;10.40;;;5.60;;
63089;SDS011;49174;43.198;27.824;2023-02-22T07:40:22;17.48;;;6.32;;
63089;SDS011;49174;43.198;27.824;2023-02-22T07:43:01;10.25;;;5.20;;
63089;SDS011;49174;43.198;27.824;2023-02-22T07:45:29;8.75;;;5.40;;
63089;SDS011;49174;43.198;27.824;2023-02-22T07:47:59;9.63;;;5.07;;
63089;SDS011;49174;43.198;27.824;2023-02-22T07:50:27;9.57;;;5.25;;
63089;SDS011;49174;43.198;27.824;2023-02-22T07:52:57;7.88;;;5.00;;
63089;SDS011;49174;43.198;27.824;2023-02-22T07:55:26;11.43;;;4.75;;
63089;SDS011;49174;43.198;27.824;2023-02-22T07:57:55;7.07;;;4.20;;
63089;SDS011;49174;43.198;27.824;2023-02-22T08:00:27;9.15;;;4.00;;
63089;SDS011;49174;43.198;27.824;2023-02-22T08:02:54;6.00;;;4.07;;
63089;SDS011;49174;43.198;27.824;2023-02-22T08:05:22;7.90;;;4.75;;
63089;SDS011;49174;43.198;27.824;2023-02-22T08:07:49;6.90;;;3.90;;
63089;SDS011;49174;43.198;27.824;2023-02-22T08:10:15;8.13;;;4.10;;
63089;SDS011;49174;43.198;27.824;2023-02-22T08:12:41;6.25;;;4.05;;
63089;SDS011;49174;43.198;27.824;2023-02-22T08:15:08;8.57;;;3.60;;
63089;SDS011;49174;43.198;27.824;2023-02-22T08:17:39;6.93;;;3.90;;
63089;SDS011;49174;43.198;27.824;2023-02-22T08:20:04;9.18;;;3.85;;
63089;SDS011;49174;43.198;27.824;2023-02-22T08:22:36;7.65;;;3.80;;
63089;SDS011;49174;43.198;27.824;2023-02-22T08:25:01;7.65;;;4.20;;
63089;SDS011;49174;43.198;27.824;2023-02-22T08:27:27;10.25;;;4.32;;
63089;SDS011;49174;43.198;27.824;2023-02-22T08:29:54;6.93;;;3.97;;
63089;SDS011;49174;43.198;27.824;2023-02-22T08:32:21;6.22;;;4.20;;
63089;SDS011;49174;43.198;27.824;2023-02-22T08:34:47;7.70;;;3.60;;
63089;SDS011;49174;43.198;27.824;2023-02-22T08:37:13;7.30;;;3.85;;
63089;SDS011;49174;43.198;27.824;2023-02-22T08:39:40;7.47;;;4.45;;
63089;SDS011;49174;43.198;27.824;2023-02-22T08:42:05;10.93;;;4.50;;
63089;SDS011;49174;43.198;27.824;2023-02-22T08:44:33;7.50;;;4.72;;
63089;SDS011;49174;43.198;27.824;2023-02-22T08:46:59;9.43;;;4.43;;
63089;SDS011;49174;43.198;27.824;2023-02-22T08:49:25;6.93;;;4.22;;
63089;SDS011;49174;43.198;27.824;2023-02-22T08:51:50;6.60;;;3.88;;
63089;SDS011;49174;43.198;27.824;2023-02-22T08:54:16;10.23;;;5.18;;
63089;SDS011;49174;43.198;27.824;2023-02-22T08:56:43;7.30;;;4.15;;
63089;SDS011;49174;43.198;27.824;2023-02-22T08:59:08;7.85;;;5.00;;
63089;SDS011;49174;43.198;27.824;2023-02-22T09:01:34;8.70;;;4.82;;
63089;SDS011;49174;43.198;27.824;2023-02-22T09:04:00;6.85;;;4.50;;
63089;SDS011;49174;43.198;27.824;2023-02-22T09:06:26;10.45;;;5.38;;
63089;SDS011;49174;43.198;27.824;2023-02-22T09:08:52;7.13;;;4.35;;
63089;SDS011;49174;43.198;27.824;2023-02-22T09:11:18;13.18;;;4.47;;
63089;SDS011;49174;43.198;27.824;2023-02-22T09:13:43;8.35;;;4.50;;
63089;SDS011;49174;43.198;27.824;2023-02-22T09:16:09;9.30;;;5.75;;
63089;SDS011;49174;43.198;27.824;2023-02-22T09:18:35;8.95;;;5.72;;
63089;SDS011;49174;43.198;27.824;2023-02-22T09:21:01;6.70;;;5.40;;
63089;SDS011;49174;43.198;27.824;2023-02-22T09:23:27;8.07;;;4.57;;
63089;SDS011;49174;43.198;27.824;2023-02-22T09:25:54;10.45;;;5.20;;
63089;SDS011;49174;43.198;27.824;2023-02-22T09:28:20;9.18;;;5.00;;
63089;SDS011;49174;43.198;27.824;2023-02-22T09:30:45;8.77;;;4.43;;
63089;SDS011;49174;43.198;27.824;2023-02-22T09:33:15;6.40;;;4.32;;
63089;SDS011;49174;43.198;27.824;2023-02-22T09:35:42;7.40;;;3.78;;
63089;SDS011;49174;43.198;27.824;2023-02-22T09:38:11;7.93;;;4.00;;
63089;SDS011;49174;43.198;27.824;2023-02-22T09:40:40;9.05;;;4.30;;
63089;SDS011;49174;43.198;27.824;2023-02-22T09:46:34;6.35;;;3.60;;
63089;SDS011;49174;43.198;27.824;2023-02-22T09:49:28;12.23;;;3.72;;
63089;SDS011;49174;43.198;27.824;2023-02-22T09:54:30;6.10;;;3.85;;
63089;SDS011;49174;43.198;27.824;2023-02-22T09:57:11;6.88;;;3.60;;
63089;SDS011;49174;43.198;27.824;2023-02-22T09:59:43;5.85;;;3.30;;
63089;SDS011;49174;43.198;27.824;2023-02-22T10:02:19;5.15;;;2.80;;
63089;SDS011;49174;43.198;27.824;2023-02-22T10:05:08;6.18;;;2.97;;
63089;SDS011;49174;43.198;27.824;2023-02-22T10:07:57;8.18;;;3.20;;
63089;SDS011;49174;43.198;27.824;2023-02-22T10:10:23;5.13;;;2.92;;
63089;SDS011;49174;43.198;27.824;2023-02-22T10:19:14;7.55;;;3.38;;
63089;SDS011;49174;43.198;27.824;2023-02-22T10:27:20;6.63;;;3.53;;
63089;SDS011;49174;43.198;27.824;2023-02-22T10:29:55;6.25;;;2.67;;
63089;SDS011;49174;43.198;27.824;2023-02-22T10:37:52;5.07;;;2.80;;
63089;SDS011;49174;43.198;27.824;2023-02-22T10:40:23;8.50;;;3.28;;
63089;SDS011;49174;43.198;27.824;2023-02-22T10:43:05;6.32;;;3.30;;
63089;SDS011;49174;43.198;27.824;2023-02-22T10:45:33;8.77;;;4.63;;
63089;SDS011;49174;43.198;27.824;2023-02-22T10:48:04;6.75;;;3.38;;
63089;SDS011;49174;43.198;27.824;2023-02-22T10:50:37;4.85;;;3.22;;
63089;SDS011;49174;43.198;27.824;2023-02-22T10:53:05;7.45;;;3.78;;
63089;SDS011;49174;43.198;27.824;2023-02-22T10:55:32;4.40;;;2.72;;
63089;SDS011;49174;43.198;27.824;2023-02-22T10:58:02;10.98;;;3.80;;
63089;SDS011;49174;43.198;27.824;2023-02-22T11:00:33;4.45;;;2.88;;
63089;SDS011;49174;43.198;27.824;2023-02-22T11:03:05;7.35;;;3.65;;
63089;SDS011;49174;43.198;27.824;2023-02-22T11:05:42;5.10;;;2.80;;
63089;SDS011;49174;43.198;27.824;2023-02-22T11:08:29;8.38;;;2.70;;
63089;SDS011;49174;43.198;27.824;2023-02-22T11:10:59;5.85;;;3.70;;
63089;SDS011;49174;43.198;27.824;2023-02-22T11:18:57;7.90;;;3.50;;
63089;SDS011;49174;43.198;27.824;2023-02-22T11:23:50;5.90;;;3.65;;
63089;SDS011;49174;43.198;27.824;2023-02-22T11:26:35;6.18;;;2.83;;
63089;SDS011;49174;43.198;27.824;2023-02-22T11:31:40;6.35;;;2.50;;
63089;SDS011;49174;43.198;27.824;2023-02-22T11:34:08;12.23;;;3.28;;
63089;SDS011;49174;43.198;27.824;2023-02-22T11:37:16;7.28;;;2.80;;
63089;SDS011;49174;43.198;27.824;2023-02-22T11:39:44;6.30;;;3.08;;
63089;SDS011;49174;43.198;27.824;2023-02-22T11:42:19;5.95;;;3.08;;
63089;SDS011;49174;43.198;27.824;2023-02-22T11:44:46;6.55;;;2.90;;
63089;SDS011;49174;43.198;27.824;2023-02-22T11:47:12;6.07;;;3.45;;
63089;SDS011;49174;43.198;27.824;2023-02-22T11:49:38;4.97;;;3.03;;
63089;SDS011;49174;43.198;27.824;2023-02-22T12:03:30;7.25;;;2.05;;
63089;SDS011;49174;43.198;27.824;2023-02-22T12:22:06;4.93;;;1.38;;
63089;SDS011;49174;43.198;27.824;2023-02-22T12:24:36;5.15;;;1.17;;
63089;SDS011;49174;43.198;27.824;2023-02-22T12:27:10;2.72;;;1.15;;
63089;SDS011;49174;43.198;27.824;2023-02-22T12:30:02;2.30;;;1.40;;
63089;SDS011;49174;43.198;27.824;2023-02-22T12:35:23;5.07;;;1.40;;
63089;SDS011;49174;43.198;27.824;2023-02-22T12:40:28;4.28;;;2.65;;
63089;SDS011;49174;43.198;27.824;2023-02-22T12:43:19;2.88;;;1.42;;
63089;SDS011;49174;43.198;27.824;2023-02-22T12:56:48;5.28;;;1.17;;
63089;SDS011;49174;43.198;27.824;2023-02-22T12:59:24;4.95;;;1.75;;
63089;SDS011;49174;43.198;27.824;2023-02-22T13:02:21;3.42;;;1.60;;
63089;SDS011;49174;43.198;27.824;2023-02-22T13:04:55;2.30;;;1.20;;
63089;SDS011;49174;43.198;27.824;2023-02-22T13:15:04;2.42;;;1.35;;
63089;SDS011;49174;43.198;27.824;2023-02-22T13:41:50;3.22;;;1.88;;
63089;SDS011;49174;43.198;27.824;2023-02-22T13:53:04;3.60;;;1.30;;
63089;SDS011;49174;43.198;27.824;2023-02-22T13:55:35;3.67;;;1.60;;
63089;SDS011;49174;43.198;27.824;2023-02-22T13:58:05;2.15;;;1.60;;
63089;SDS011;49174;43.198;27.824;2023-02-22T14:13:08;4.07;;;1.70;;
63089;SDS011;49174;43.198;27.824;2023-02-22T14:15:34;2.85;;;1.40;;
63089;SDS011;49174;43.198;27.824;2023-02-22T14:18:03;3.55;;;2.25;;
63089;SDS011;49174;43.198;27.824;2023-02-22T14:20:35;3.22;;;1.77;;
63089;SDS011;49174;43.198;27.824;2023-02-22T14:25:53;4.63;;;1.77;;
63089;SDS011;49174;43.198;27.824;2023-02-22T14:28:36;8.20;;;2.20;;
63089;SDS011;49174;43.198;27.824;2023-02-22T14:31:10;4.75;;;1.95;;
63089;SDS011;49174;43.198;27.824;2023-02-22T14:39:17;2.45;;;1.67;;
63089;SDS011;49174;43.198;27.824;2023-02-22T14:42:03;4.38;;;2.50;;
63089;SDS011;49174;43.198;27.824;2023-02-22T14:47:21;4.00;;;1.88;;
63089;SDS011;49174;43.198;27.824;2023-02-22T14:49:53;4.22;;;2.22;;
63089;SDS011;49174;43.198;27.824;2023-02-22T14:52:26;6.88;;;2.10;;
63089;SDS011;49174;43.198;27.824;2023-02-22T15:36:11;5.60;;;2.10;;
63089;SDS011;49174;43.198;27.824;2023-02-22T15:44:19;3.58;;;1.50;;
63089;SDS011;49174;43.198;27.824;2023-02-22T15:58:45;6.28;;;2.22;;
63089;SDS011;49174;43.198;27.824;2023-02-22T16:04:19;4.70;;;1.88;;
63089;SDS011;49174;43.198;27.824;2023-02-22T16:07:35;4.38;;;1.90;;
63089;SDS011;49174;43.198;27.824;2023-02-22T16:12:47;7.75;;;3.42;;
63089;SDS011;49174;43.198;27.824;2023-02-22T16:18:16;6.68;;;3.58;;
63089;SDS011;49174;43.198;27.824;2023-02-22T16:20:57;9.25;;;3.53;;
63089;SDS011;49174;43.198;27.824;2023-02-22T16:23:50;11.45;;;3.88;;
63089;SDS011;49174;43.198;27.824;2023-02-22T16:26:19;31.67;;;18.92;;
63089;SDS011;49174;43.198;27.824;2023-02-22T16:28:48;6.35;;;3.00;;
63089;SDS011;49174;43.198;27.824;2023-02-22T16:34:21;6.97;;;3.08;;
63089;SDS011;49174;43.198;27.824;2023-02-22T16:36:47;6.80;;;2.70;;
63089;SDS011;49174;43.198;27.824;2023-02-22T16:41:54;2.88;;;1.65;;
63089;SDS011;49174;43.198;27.824;2023-02-22T16:44:22;4.10;;;1.85;;
63089;SDS011;49174;43.198;27.824;2023-02-22T16:46:55;4.40;;;2.42;;
63089;SDS011;49174;43.198;27.824;2023-02-22T16:49:23;4.15;;;1.67;;
63089;SDS011;49174;43.198;27.824;2023-02-22T16:54:43;3.65;;;2.17;;
63089;SDS011;49174;43.198;27.824;2023-02-22T16:57:17;4.13;;;1.60;;
63089;SDS011;49174;43.198;27.824;2023-02-22T16:59:48;5.25;;;1.83;;
63089;SDS011;49174;43.198;27.824;2023-02-22T17:02:17;5.38;;;2.22;;
63089;SDS011;49174;43.198;27.824;2023-02-22T17:04:44;4.95;;;1.90;;
63089;SDS011;49174;43.198;27.824;2023-02-22T17:07:20;5.55;;;2.15;;
63089;SDS011;49174;43.198;27.824;2023-02-22T17:29:13;4.22;;;1.85;;
63089;SDS011;49174;43.198;27.824;2023-02-22T17:31:40;7.93;;;1.63;;
63089;SDS011;49174;43.198;27.824;2023-02-22T17:34:06;3.95;;;1.33;;
63089;SDS011;49174;43.198;27.824;2023-02-22T17:36:32;4.50;;;1.60;;
63089;SDS011;49174;43.198;27.824;2023-02-22T17:39:00;4.30;;;1.48;;
63089;SDS011;49174;43.198;27.824;2023-02-22T17:41:27;4.65;;;1.65;;
63089;SDS011;49174;43.198;27.824;2023-02-22T17:43:53;5.53;;;1.60;;
63089;SDS011;49174;43.198;27.824;2023-02-22T17:46:22;3.40;;;1.77;;
63089;SDS011;49174;43.198;27.824;2023-02-22T18:05:02;3.75;;;1.52;;
63089;SDS011;49174;43.198;27.824;2023-02-22T18:09:54;10.77;;;4.25;;
63089;SDS011;49174;43.198;27.824;2023-02-22T18:55:31;10.90;;;4.22;;
63089;SDS011;49174;43.198;27.824;2023-02-22T18:58:01;8.05;;;3.33;;
63089;SDS011;49174;43.198;27.824;2023-02-22T19:08:38;9.70;;;3.58;;
63089;SDS011;49174;43.198;27.824;2023-02-22T19:11:07;11.77;;;5.68;;
63089;SDS011;49174;43.198;27.824;2023-02-22T20:13:33;10.13;;;6.40;;
63089;SDS011;49174;43.198;27.824;2023-02-22T20:18:41;15.03;;;5.50;;
63089;SDS011;49174;43.198;27.824;2023-02-22T20:21:08;11.77;;;7.90;;
63089;SDS011;49174;43.198;27.824;2023-02-22T20:23:35;13.82;;;6.70;;
63089;SDS011;49174;43.198;27.824;2023-02-22T20:26:04;12.23;;;5.60;;
63089;SDS011;49174;43.198;27.824;2023-02-22T20:28:37;13.85;;;6.07;;
63089;SDS011;49174;43.198;27.824;2023-02-22T20:31:06;13.23;;;7.40;;
63089;SDS011;49174;43.198;27.824;2023-02-22T20:33:35;20.48;;;9.88;;
63089;SDS011;49174;43.198;27.824;2023-02-22T21:25:20;11.00;;;7.45;;
63089;SDS011;49174;43.198;27.824;2023-02-22T21:27:46;13.13;;;8.00;;
63089;SDS011;49174;43.198;27.824;2023-02-22T21:30:12;14.85;;;8.05;;
63089;SDS011;49174;43.198;27.824;2023-02-22T21:32:39;12.90;;;7.45;;
63089;SDS011;49174;43.198;27.824;2023-02-22T21:51:25;23.92;;;13.38;;
63089;SDS011;49174;43.198;27.824;2023-02-22T22:29:09;15.48;;;9.82;;
63089;SDS011;49174;43.198;27.824;2023-02-22T22:54:07;28.50;;;13.73;;
63089;SDS011;49174;43.198;27.824;2023-02-22T23:17:28;30.95;;;16.05;;
